sensor_id;sensor_type;location;lat;lon;timestamp;P1;durP1;ratioP1;P2;durP2;ratioP2
52294;SDS011;38243;53.212;6.574;2023-05-20T00:01:52;2.47;;;1.15;;
52294;SDS011;38243;53.212;6.574;2023-05-20T00:04:18;2.80;;;1.03;;
52294;SDS011;38243;53.212;6.574;2023-05-20T00:06:44;1.60;;;0.88;;
52294;SDS011;38243;53.212;6.574;2023-05-20T00:09:09;2.23;;;1.00;;
52294;SDS011;38243;53.212;6.574;2023-05-20T00:11:35;2.75;;;1.00;;
52294;SDS011;38243;53.212;6.574;2023-05-20T00:14:01;2.67;;;1.23;;
52294;SDS011;38243;53.212;6.574;2023-05-20T00:16:26;2.10;;;1.20;;
52294;SDS011;38243;53.212;6.574;2023-05-20T00:18:52;2.27;;;1.20;;
52294;SDS011;38243;53.212;6.574;2023-05-20T00:21:18;2.25;;;0.98;;
52294;SDS011;38243;53.212;6.574;2023-05-20T00:23:44;1.33;;;0.90;;
52294;SDS011;38243;53.212;6.574;2023-05-20T00:26:09;2.20;;;0.90;;
52294;SDS011;38243;53.212;6.574;2023-05-20T00:28:35;2.13;;;1.10;;
52294;SDS011;38243;53.212;6.574;2023-05-20T00:31:01;2.42;;;1.20;;
52294;SDS011;38243;53.212;6.574;2023-05-20T00:33:26;2.20;;;1.20;;
52294;SDS011;38243;53.212;6.574;2023-05-20T00:35:52;1.60;;;1.10;;
52294;SDS011;38243;53.212;6.574;2023-05-20T00:38:18;1.63;;;0.87;;
52294;SDS011;38243;53.212;6.574;2023-05-20T00:40:43;2.77;;;1.20;;
52294;SDS011;38243;53.212;6.574;2023-05-20T00:43:09;3.03;;;1.00;;
52294;SDS011;38243;53.212;6.574;2023-05-20T00:45:35;1.65;;;1.00;;
52294;SDS011;38243;53.212;6.574;2023-05-20T00:48:02;1.97;;;0.90;;
52294;SDS011;38243;53.212;6.574;2023-05-20T00:50:29;2.30;;;1.20;;
52294;SDS011;38243;53.212;6.574;2023-05-20T00:52:55;2.03;;;1.08;;
52294;SDS011;38243;53.212;6.574;2023-05-20T00:55:23;2.97;;;1.10;;
52294;SDS011;38243;53.212;6.574;2023-05-20T00:57:49;2.20;;;1.00;;
52294;SDS011;38243;53.212;6.574;2023-05-20T01:00:16;1.75;;;1.00;;
52294;SDS011;38243;53.212;6.574;2023-05-20T01:02:41;2.50;;;1.33;;
52294;SDS011;38243;53.212;6.574;2023-05-20T01:05:07;3.43;;;1.20;;
52294;SDS011;38243;53.212;6.574;2023-05-20T01:07:33;2.47;;;1.15;;
52294;SDS011;38243;53.212;6.574;2023-05-20T01:09:59;1.45;;;0.85;;
52294;SDS011;38243;53.212;6.574;2023-05-20T01:12:30;1.88;;;1.20;;
52294;SDS011;38243;53.212;6.574;2023-05-20T01:15:10;3.63;;;1.40;;
52294;SDS011;38243;53.212;6.574;2023-05-20T01:17:37;1.70;;;0.90;;
52294;SDS011;38243;53.212;6.574;2023-05-20T01:20:06;3.80;;;0.90;;
52294;SDS011;38243;53.212;6.574;2023-05-20T01:22:35;1.60;;;0.90;;
52294;SDS011;38243;53.212;6.574;2023-05-20T01:25:02;1.67;;;0.90;;
52294;SDS011;38243;53.212;6.574;2023-05-20T01:27:29;2.83;;;1.30;;
52294;SDS011;38243;53.212;6.574;2023-05-20T01:29:55;1.10;;;0.82;;
52294;SDS011;38243;53.212;6.574;2023-05-20T01:32:30;2.50;;;1.00;;
52294;SDS011;38243;53.212;6.574;2023-05-20T01:35:01;2.22;;;0.90;;
52294;SDS011;38243;53.212;6.574;2023-05-20T01:37:28;1.90;;;1.10;;
52294;SDS011;38243;53.212;6.574;2023-05-20T01:39:55;1.17;;;0.80;;
52294;SDS011;38243;53.212;6.574;2023-05-20T01:42:22;2.08;;;0.90;;
52294;SDS011;38243;53.212;6.574;2023-05-20T01:44:51;2.70;;;0.90;;
52294;SDS011;38243;53.212;6.574;2023-05-20T01:47:16;1.70;;;1.13;;
52294;SDS011;38243;53.212;6.574;2023-05-20T01:49:42;1.03;;;0.73;;
52294;SDS011;38243;53.212;6.574;2023-05-20T01:52:10;1.52;;;0.90;;
52294;SDS011;38243;53.212;6.574;2023-05-20T01:54:36;1.55;;;0.80;;
52294;SDS011;38243;53.212;6.574;2023-05-20T01:57:02;1.33;;;0.80;;
52294;SDS011;38243;53.212;6.574;2023-05-20T01:59:27;1.95;;;0.90;;
52294;SDS011;38243;53.212;6.574;2023-05-20T02:01:53;1.17;;;0.77;;
52294;SDS011;38243;53.212;6.574;2023-05-20T02:04:19;1.50;;;0.80;;
52294;SDS011;38243;53.212;6.574;2023-05-20T02:06:46;2.25;;;0.88;;
52294;SDS011;38243;53.212;6.574;2023-05-20T02:09:12;1.53;;;0.80;;
52294;SDS011;38243;53.212;6.574;2023-05-20T02:11:38;1.23;;;0.65;;
52294;SDS011;38243;53.212;6.574;2023-05-20T02:14:04;1.40;;;0.70;;
52294;SDS011;38243;53.212;6.574;2023-05-20T02:16:29;1.60;;;0.70;;
52294;SDS011;38243;53.212;6.574;2023-05-20T02:18:55;1.80;;;0.88;;
52294;SDS011;38243;53.212;6.574;2023-05-20T02:21:22;1.57;;;0.90;;
52294;SDS011;38243;53.212;6.574;2023-05-20T02:23:49;2.17;;;0.95;;
52294;SDS011;38243;53.212;6.574;2023-05-20T02:26:15;2.47;;;0.70;;
52294;SDS011;38243;53.212;6.574;2023-05-20T02:28:41;2.08;;;0.80;;
52294;SDS011;38243;53.212;6.574;2023-05-20T02:31:11;1.02;;;0.70;;
52294;SDS011;38243;53.212;6.574;2023-05-20T02:33:40;1.73;;;0.75;;
52294;SDS011;38243;53.212;6.574;2023-05-20T02:36:05;1.97;;;0.90;;
52294;SDS011;38243;53.212;6.574;2023-05-20T02:38:31;1.58;;;0.77;;
52294;SDS011;38243;53.212;6.574;2023-05-20T02:40:57;0.90;;;0.77;;
52294;SDS011;38243;53.212;6.574;2023-05-20T02:43:24;1.15;;;0.80;;
52294;SDS011;38243;53.212;6.574;2023-05-20T02:45:50;1.58;;;0.90;;
52294;SDS011;38243;53.212;6.574;2023-05-20T02:48:16;1.23;;;0.80;;
52294;SDS011;38243;53.212;6.574;2023-05-20T02:50:41;1.10;;;0.60;;
52294;SDS011;38243;53.212;6.574;2023-05-20T02:53:08;1.02;;;0.60;;
52294;SDS011;38243;53.212;6.574;2023-05-20T02:55:35;1.80;;;0.60;;
52294;SDS011;38243;53.212;6.574;2023-05-20T02:58:01;1.58;;;0.80;;
52294;SDS011;38243;53.212;6.574;2023-05-20T03:00:27;1.20;;;0.60;;
52294;SDS011;38243;53.212;6.574;2023-05-20T03:02:55;1.95;;;0.80;;
52294;SDS011;38243;53.212;6.574;2023-05-20T03:05:21;2.27;;;0.97;;
52294;SDS011;38243;53.212;6.574;2023-05-20T03:07:47;1.40;;;0.60;;
52294;SDS011;38243;53.212;6.574;2023-05-20T03:10:13;1.15;;;0.60;;
52294;SDS011;38243;53.212;6.574;2023-05-20T03:12:39;1.05;;;0.70;;
52294;SDS011;38243;53.212;6.574;2023-05-20T03:15:05;1.55;;;0.75;;
52294;SDS011;38243;53.212;6.574;2023-05-20T03:17:32;1.77;;;0.70;;
52294;SDS011;38243;53.212;6.574;2023-05-20T03:19:57;2.30;;;0.80;;
52294;SDS011;38243;53.212;6.574;2023-05-20T03:22:23;1.55;;;0.68;;
52294;SDS011;38243;53.212;6.574;2023-05-20T03:24:49;1.70;;;0.70;;
52294;SDS011;38243;53.212;6.574;2023-05-20T03:27:16;1.70;;;0.88;;
52294;SDS011;38243;53.212;6.574;2023-05-20T03:29:42;0.85;;;0.60;;
52294;SDS011;38243;53.212;6.574;2023-05-20T03:32:08;1.93;;;1.00;;
52294;SDS011;38243;53.212;6.574;2023-05-20T03:34:34;1.90;;;0.82;;
52294;SDS011;38243;53.212;6.574;2023-05-20T03:37:00;1.27;;;0.70;;
52294;SDS011;38243;53.212;6.574;2023-05-20T03:39:25;1.25;;;0.68;;
52294;SDS011;38243;53.212;6.574;2023-05-20T03:41:51;1.43;;;0.53;;
52294;SDS011;38243;53.212;6.574;2023-05-20T03:44:17;1.85;;;0.82;;
52294;SDS011;38243;53.212;6.574;2023-05-20T03:46:43;1.38;;;0.70;;
52294;SDS011;38243;53.212;6.574;2023-05-20T03:49:09;2.17;;;0.80;;
52294;SDS011;38243;53.212;6.574;2023-05-20T03:51:35;1.90;;;0.67;;
52294;SDS011;38243;53.212;6.574;2023-05-20T03:54:00;0.95;;;0.60;;
52294;SDS011;38243;53.212;6.574;2023-05-20T03:56:26;1.20;;;0.80;;
52294;SDS011;38243;53.212;6.574;2023-05-20T03:58:52;0.98;;;0.60;;
52294;SDS011;38243;53.212;6.574;2023-05-20T04:01:18;1.40;;;0.70;;
52294;SDS011;38243;53.212;6.574;2023-05-20T04:03:45;0.73;;;0.60;;
52294;SDS011;38243;53.212;6.574;2023-05-20T04:06:12;1.27;;;0.70;;
52294;SDS011;38243;53.212;6.574;2023-05-20T04:08:38;0.87;;;0.60;;
52294;SDS011;38243;53.212;6.574;2023-05-20T04:11:03;1.15;;;0.68;;
52294;SDS011;38243;53.212;6.574;2023-05-20T04:13:30;2.17;;;0.50;;
52294;SDS011;38243;53.212;6.574;2023-05-20T04:15:55;1.00;;;0.70;;
52294;SDS011;38243;53.212;6.574;2023-05-20T04:18:21;1.40;;;0.60;;
52294;SDS011;38243;53.212;6.574;2023-05-20T04:20:47;1.83;;;0.70;;
52294;SDS011;38243;53.212;6.574;2023-05-20T04:23:12;1.40;;;0.70;;
52294;SDS011;38243;53.212;6.574;2023-05-20T04:25:38;1.02;;;0.70;;
52294;SDS011;38243;53.212;6.574;2023-05-20T04:28:06;0.98;;;0.60;;
52294;SDS011;38243;53.212;6.574;2023-05-20T04:30:34;0.90;;;0.60;;
52294;SDS011;38243;53.212;6.574;2023-05-20T04:33:00;0.73;;;0.50;;
52294;SDS011;38243;53.212;6.574;2023-05-20T04:35:27;0.98;;;0.50;;
52294;SDS011;38243;53.212;6.574;2023-05-20T04:37:53;0.63;;;0.50;;
52294;SDS011;38243;53.212;6.574;2023-05-20T04:40:20;1.98;;;0.57;;
52294;SDS011;38243;53.212;6.574;2023-05-20T04:42:46;1.27;;;0.70;;
52294;SDS011;38243;53.212;6.574;2023-05-20T04:45:11;1.05;;;0.80;;
52294;SDS011;38243;53.212;6.574;2023-05-20T04:47:37;1.90;;;0.80;;
52294;SDS011;38243;53.212;6.574;2023-05-20T04:50:07;0.52;;;0.40;;
52294;SDS011;38243;53.212;6.574;2023-05-20T04:52:40;0.82;;;0.52;;
52294;SDS011;38243;53.212;6.574;2023-05-20T04:55:15;0.60;;;0.40;;
52294;SDS011;38243;53.212;6.574;2023-05-20T04:57:41;1.67;;;0.70;;
52294;SDS011;38243;53.212;6.574;2023-05-20T05:00:08;0.98;;;0.60;;
52294;SDS011;38243;53.212;6.574;2023-05-20T05:02:34;0.80;;;0.50;;
52294;SDS011;38243;53.212;6.574;2023-05-20T05:05:00;0.90;;;0.60;;
52294;SDS011;38243;53.212;6.574;2023-05-20T05:07:26;3.00;;;0.60;;
52294;SDS011;38243;53.212;6.574;2023-05-20T05:09:51;1.10;;;0.60;;
52294;SDS011;38243;53.212;6.574;2023-05-20T05:12:17;1.20;;;0.47;;
52294;SDS011;38243;53.212;6.574;2023-05-20T05:14:43;1.00;;;0.40;;
52294;SDS011;38243;53.212;6.574;2023-05-20T05:17:08;1.00;;;0.55;;
52294;SDS011;38243;53.212;6.574;2023-05-20T05:19:34;0.87;;;0.50;;
52294;SDS011;38243;53.212;6.574;2023-05-20T05:22:00;1.00;;;0.52;;
52294;SDS011;38243;53.212;6.574;2023-05-20T05:24:26;0.97;;;0.50;;
52294;SDS011;38243;53.212;6.574;2023-05-20T05:26:54;2.03;;;0.60;;
52294;SDS011;38243;53.212;6.574;2023-05-20T05:29:20;1.70;;;0.70;;
52294;SDS011;38243;53.212;6.574;2023-05-20T05:31:46;2.05;;;0.60;;
52294;SDS011;38243;53.212;6.574;2023-05-20T05:34:13;1.20;;;0.52;;
52294;SDS011;38243;53.212;6.574;2023-05-20T05:36:39;1.08;;;0.50;;
52294;SDS011;38243;53.212;6.574;2023-05-20T05:39:05;1.30;;;0.60;;
52294;SDS011;38243;53.212;6.574;2023-05-20T05:41:31;1.17;;;0.60;;
52294;SDS011;38243;53.212;6.574;2023-05-20T05:43:57;1.90;;;0.70;;
52294;SDS011;38243;53.212;6.574;2023-05-20T05:46:23;1.45;;;0.70;;
52294;SDS011;38243;53.212;6.574;2023-05-20T05:48:49;1.53;;;0.60;;
52294;SDS011;38243;53.212;6.574;2023-05-20T05:51:15;2.50;;;0.70;;
52294;SDS011;38243;53.212;6.574;2023-05-20T05:53:41;2.60;;;0.80;;
52294;SDS011;38243;53.212;6.574;2023-05-20T05:56:08;2.00;;;0.63;;
52294;SDS011;38243;53.212;6.574;2023-05-20T05:58:34;0.83;;;0.50;;
52294;SDS011;38243;53.212;6.574;2023-05-20T06:00:59;1.67;;;0.68;;
52294;SDS011;38243;53.212;6.574;2023-05-20T06:03:26;0.77;;;0.60;;
52294;SDS011;38243;53.212;6.574;2023-05-20T06:05:53;1.33;;;0.70;;
52294;SDS011;38243;53.212;6.574;2023-05-20T06:08:19;2.88;;;0.70;;
52294;SDS011;38243;53.212;6.574;2023-05-20T06:10:48;2.70;;;0.90;;
52294;SDS011;38243;53.212;6.574;2023-05-20T06:13:15;1.08;;;0.60;;
52294;SDS011;38243;53.212;6.574;2023-05-20T06:15:42;1.63;;;0.55;;
52294;SDS011;38243;53.212;6.574;2023-05-20T06:18:10;1.83;;;0.70;;
52294;SDS011;38243;53.212;6.574;2023-05-20T06:20:38;0.73;;;0.57;;
52294;SDS011;38243;53.212;6.574;2023-05-20T06:23:05;0.80;;;0.57;;
52294;SDS011;38243;53.212;6.574;2023-05-20T06:25:30;0.93;;;0.50;;
52294;SDS011;38243;53.212;6.574;2023-05-20T06:27:56;1.13;;;0.60;;
52294;SDS011;38243;53.212;6.574;2023-05-20T06:30:22;0.85;;;0.50;;
52294;SDS011;38243;53.212;6.574;2023-05-20T06:32:47;0.83;;;0.47;;
52294;SDS011;38243;53.212;6.574;2023-05-20T06:35:13;1.35;;;0.50;;
52294;SDS011;38243;53.212;6.574;2023-05-20T06:37:39;1.43;;;0.57;;
52294;SDS011;38243;53.212;6.574;2023-05-20T06:40:05;1.40;;;0.80;;
52294;SDS011;38243;53.212;6.574;2023-05-20T06:42:31;0.80;;;0.45;;
52294;SDS011;38243;53.212;6.574;2023-05-20T06:44:57;1.38;;;0.47;;
52294;SDS011;38243;53.212;6.574;2023-05-20T06:47:22;1.00;;;0.50;;
52294;SDS011;38243;53.212;6.574;2023-05-20T06:49:48;0.95;;;0.45;;
52294;SDS011;38243;53.212;6.574;2023-05-20T06:52:14;0.67;;;0.40;;
52294;SDS011;38243;53.212;6.574;2023-05-20T06:54:40;0.95;;;0.40;;
52294;SDS011;38243;53.212;6.574;2023-05-20T06:57:06;0.90;;;0.50;;
52294;SDS011;38243;53.212;6.574;2023-05-20T06:59:32;1.00;;;0.43;;
52294;SDS011;38243;53.212;6.574;2023-05-20T07:01:59;0.70;;;0.30;;
52294;SDS011;38243;53.212;6.574;2023-05-20T07:04:25;1.40;;;0.50;;
52294;SDS011;38243;53.212;6.574;2023-05-20T07:06:51;1.35;;;0.50;;
52294;SDS011;38243;53.212;6.574;2023-05-20T07:09:16;1.08;;;0.45;;
52294;SDS011;38243;53.212;6.574;2023-05-20T07:11:42;1.60;;;0.53;;
52294;SDS011;38243;53.212;6.574;2023-05-20T07:14:08;1.25;;;0.52;;
52294;SDS011;38243;53.212;6.574;2023-05-20T07:16:34;0.80;;;0.50;;
52294;SDS011;38243;53.212;6.574;2023-05-20T07:19:00;0.75;;;0.40;;
52294;SDS011;38243;53.212;6.574;2023-05-20T07:21:27;1.15;;;0.50;;
52294;SDS011;38243;53.212;6.574;2023-05-20T07:23:52;1.48;;;0.50;;
52294;SDS011;38243;53.212;6.574;2023-05-20T07:26:18;0.50;;;0.47;;
52294;SDS011;38243;53.212;6.574;2023-05-20T07:28:44;3.00;;;0.70;;
52294;SDS011;38243;53.212;6.574;2023-05-20T07:31:11;0.93;;;0.50;;
52294;SDS011;38243;53.212;6.574;2023-05-20T07:33:37;1.08;;;0.65;;
52294;SDS011;38243;53.212;6.574;2023-05-20T07:36:02;1.42;;;0.45;;
52294;SDS011;38243;53.212;6.574;2023-05-20T07:38:28;1.13;;;0.50;;
52294;SDS011;38243;53.212;6.574;2023-05-20T07:40:54;0.67;;;0.43;;
52294;SDS011;38243;53.212;6.574;2023-05-20T07:43:20;2.30;;;0.50;;
52294;SDS011;38243;53.212;6.574;2023-05-20T07:45:46;0.77;;;0.40;;
52294;SDS011;38243;53.212;6.574;2023-05-20T07:48:12;1.08;;;0.47;;
52294;SDS011;38243;53.212;6.574;2023-05-20T07:50:38;1.08;;;0.50;;
52294;SDS011;38243;53.212;6.574;2023-05-20T07:53:06;0.75;;;0.47;;
52294;SDS011;38243;53.212;6.574;2023-05-20T07:55:32;0.50;;;0.40;;
52294;SDS011;38243;53.212;6.574;2023-05-20T07:58:00;1.05;;;0.45;;
52294;SDS011;38243;53.212;6.574;2023-05-20T08:00:26;1.40;;;0.40;;
52294;SDS011;38243;53.212;6.574;2023-05-20T08:02:52;0.57;;;0.40;;
52294;SDS011;38243;53.212;6.574;2023-05-20T08:05:18;0.80;;;0.40;;
52294;SDS011;38243;53.212;6.574;2023-05-20T08:07:44;1.67;;;0.40;;
52294;SDS011;38243;53.212;6.574;2023-05-20T08:10:10;0.90;;;0.40;;
52294;SDS011;38243;53.212;6.574;2023-05-20T08:12:36;2.15;;;0.55;;
52294;SDS011;38243;53.212;6.574;2023-05-20T08:15:01;1.10;;;0.50;;
52294;SDS011;38243;53.212;6.574;2023-05-20T08:17:28;1.60;;;0.80;;
52294;SDS011;38243;53.212;6.574;2023-05-20T08:19:54;1.73;;;0.60;;
52294;SDS011;38243;53.212;6.574;2023-05-20T08:22:20;1.70;;;0.45;;
52294;SDS011;38243;53.212;6.574;2023-05-20T08:24:45;1.00;;;0.50;;
52294;SDS011;38243;53.212;6.574;2023-05-20T08:27:11;0.63;;;0.40;;
52294;SDS011;38243;53.212;6.574;2023-05-20T08:29:37;1.80;;;0.60;;
52294;SDS011;38243;53.212;6.574;2023-05-20T08:32:02;0.80;;;0.60;;
52294;SDS011;38243;53.212;6.574;2023-05-20T08:34:32;0.60;;;0.30;;
52294;SDS011;38243;53.212;6.574;2023-05-20T08:37:00;1.70;;;0.40;;
52294;SDS011;38243;53.212;6.574;2023-05-20T08:39:25;1.48;;;0.50;;
52294;SDS011;38243;53.212;6.574;2023-05-20T08:41:51;2.28;;;0.50;;
52294;SDS011;38243;53.212;6.574;2023-05-20T08:44:17;2.75;;;0.60;;
52294;SDS011;38243;53.212;6.574;2023-05-20T08:46:44;1.63;;;0.60;;
52294;SDS011;38243;53.212;6.574;2023-05-20T08:49:11;2.08;;;0.55;;
52294;SDS011;38243;53.212;6.574;2023-05-20T08:51:36;2.77;;;0.60;;
52294;SDS011;38243;53.212;6.574;2023-05-20T08:54:03;2.10;;;0.90;;
52294;SDS011;38243;53.212;6.574;2023-05-20T08:56:33;0.88;;;0.45;;
52294;SDS011;38243;53.212;6.574;2023-05-20T08:58:59;1.42;;;0.60;;
52294;SDS011;38243;53.212;6.574;2023-05-20T09:01:25;2.88;;;0.55;;
52294;SDS011;38243;53.212;6.574;2023-05-20T09:03:51;2.73;;;0.50;;
52294;SDS011;38243;53.212;6.574;2023-05-20T09:06:17;2.00;;;0.80;;
52294;SDS011;38243;53.212;6.574;2023-05-20T09:08:58;2.78;;;0.70;;
52294;SDS011;38243;53.212;6.574;2023-05-20T09:11:24;3.00;;;0.60;;
52294;SDS011;38243;53.212;6.574;2023-05-20T09:13:50;3.55;;;0.80;;
52294;SDS011;38243;53.212;6.574;2023-05-20T09:16:16;1.42;;;0.70;;
52294;SDS011;38243;53.212;6.574;2023-05-20T09:18:42;1.30;;;0.70;;
52294;SDS011;38243;53.212;6.574;2023-05-20T09:21:08;1.70;;;0.60;;
52294;SDS011;38243;53.212;6.574;2023-05-20T09:23:37;0.73;;;0.55;;
52294;SDS011;38243;53.212;6.574;2023-05-20T09:26:03;1.60;;;0.63;;
52294;SDS011;38243;53.212;6.574;2023-05-20T09:28:29;1.88;;;0.60;;
52294;SDS011;38243;53.212;6.574;2023-05-20T09:30:58;1.80;;;0.60;;
52294;SDS011;38243;53.212;6.574;2023-05-20T09:33:27;2.95;;;0.50;;
52294;SDS011;38243;53.212;6.574;2023-05-20T09:36:00;2.03;;;0.60;;
52294;SDS011;38243;53.212;6.574;2023-05-20T09:38:32;1.50;;;0.60;;
52294;SDS011;38243;53.212;6.574;2023-05-20T09:41:11;2.05;;;0.70;;
52294;SDS011;38243;53.212;6.574;2023-05-20T09:43:41;1.00;;;0.70;;
52294;SDS011;38243;53.212;6.574;2023-05-20T09:46:07;2.13;;;0.67;;
52294;SDS011;38243;53.212;6.574;2023-05-20T09:48:36;2.17;;;0.50;;
52294;SDS011;38243;53.212;6.574;2023-05-20T09:51:02;2.22;;;0.65;;
52294;SDS011;38243;53.212;6.574;2023-05-20T09:53:29;1.48;;;0.75;;
52294;SDS011;38243;53.212;6.574;2023-05-20T09:55:55;2.88;;;0.70;;
52294;SDS011;38243;53.212;6.574;2023-05-20T09:58:22;2.72;;;0.90;;
52294;SDS011;38243;53.212;6.574;2023-05-20T10:00:49;2.90;;;0.70;;
52294;SDS011;38243;53.212;6.574;2023-05-20T10:03:16;2.22;;;0.70;;
52294;SDS011;38243;53.212;6.574;2023-05-20T10:05:44;2.80;;;0.60;;
52294;SDS011;38243;53.212;6.574;2023-05-20T10:11:18;2.47;;;0.75;;
52294;SDS011;38243;53.212;6.574;2023-05-20T10:19:49;1.10;;;0.50;;
52294;SDS011;38243;53.212;6.574;2023-05-20T10:22:27;1.17;;;0.50;;
52294;SDS011;38243;53.212;6.574;2023-05-20T10:25:03;1.77;;;0.60;;
52294;SDS011;38243;53.212;6.574;2023-05-20T10:27:45;3.25;;;0.70;;
52294;SDS011;38243;53.212;6.574;2023-05-20T10:30:15;3.42;;;0.70;;
52294;SDS011;38243;53.212;6.574;2023-05-20T10:32:52;4.50;;;0.90;;
52294;SDS011;38243;53.212;6.574;2023-05-20T10:35:25;1.90;;;0.77;;
52294;SDS011;38243;53.212;6.574;2023-05-20T10:37:52;2.28;;;0.70;;
52294;SDS011;38243;53.212;6.574;2023-05-20T10:40:20;2.58;;;0.60;;
52294;SDS011;38243;53.212;6.574;2023-05-20T10:42:46;2.45;;;0.50;;
52294;SDS011;38243;53.212;6.574;2023-05-20T10:45:28;2.37;;;0.77;;
52294;SDS011;38243;53.212;6.574;2023-05-20T10:47:54;1.15;;;0.60;;
52294;SDS011;38243;53.212;6.574;2023-05-20T10:50:34;3.40;;;0.70;;
52294;SDS011;38243;53.212;6.574;2023-05-20T10:53:01;2.30;;;0.70;;
52294;SDS011;38243;53.212;6.574;2023-05-20T10:55:37;2.40;;;0.70;;
52294;SDS011;38243;53.212;6.574;2023-05-20T10:58:04;2.73;;;0.70;;
52294;SDS011;38243;53.212;6.574;2023-05-20T11:00:33;4.50;;;0.63;;
52294;SDS011;38243;53.212;6.574;2023-05-20T11:03:03;4.15;;;0.60;;
52294;SDS011;38243;53.212;6.574;2023-05-20T11:05:30;2.55;;;0.70;;
52294;SDS011;38243;53.212;6.574;2023-05-20T11:08:05;4.10;;;0.90;;
52294;SDS011;38243;53.212;6.574;2023-05-20T11:10:35;4.72;;;0.90;;
52294;SDS011;38243;53.212;6.574;2023-05-20T11:13:01;2.03;;;0.70;;
52294;SDS011;38243;53.212;6.574;2023-05-20T11:15:28;3.28;;;1.00;;
52294;SDS011;38243;53.212;6.574;2023-05-20T11:17:56;4.28;;;0.77;;
52294;SDS011;38243;53.212;6.574;2023-05-20T11:20:25;4.75;;;1.00;;
52294;SDS011;38243;53.212;6.574;2023-05-20T11:22:52;4.45;;;0.88;;
52294;SDS011;38243;53.212;6.574;2023-05-20T11:25:18;3.80;;;1.00;;
52294;SDS011;38243;53.212;6.574;2023-05-20T11:27:45;4.15;;;1.00;;
52294;SDS011;38243;53.212;6.574;2023-05-20T11:30:14;4.43;;;0.97;;
52294;SDS011;38243;53.212;6.574;2023-05-20T11:32:44;2.63;;;0.90;;
52294;SDS011;38243;53.212;6.574;2023-05-20T11:35:21;3.85;;;1.15;;
52294;SDS011;38243;53.212;6.574;2023-05-20T11:37:54;2.55;;;0.85;;
52294;SDS011;38243;53.212;6.574;2023-05-20T11:40:29;4.72;;;0.98;;
52294;SDS011;38243;53.212;6.574;2023-05-20T11:42:56;4.05;;;1.40;;
52294;SDS011;38243;53.212;6.574;2023-05-20T11:45:23;4.28;;;1.00;;
52294;SDS011;38243;53.212;6.574;2023-05-20T11:48:02;4.53;;;1.10;;
52294;SDS011;38243;53.212;6.574;2023-05-20T11:50:33;3.25;;;1.00;;
52294;SDS011;38243;53.212;6.574;2023-05-20T11:53:05;3.83;;;1.13;;
52294;SDS011;38243;53.212;6.574;2023-05-20T11:55:32;4.53;;;1.30;;
52294;SDS011;38243;53.212;6.574;2023-05-20T11:57:59;4.45;;;1.20;;
52294;SDS011;38243;53.212;6.574;2023-05-20T12:00:25;2.00;;;0.98;;
52294;SDS011;38243;53.212;6.574;2023-05-20T12:02:52;4.05;;;0.90;;
52294;SDS011;38243;53.212;6.574;2023-05-20T12:05:17;2.53;;;0.77;;
52294;SDS011;38243;53.212;6.574;2023-05-20T12:07:44;1.73;;;0.65;;
52294;SDS011;38243;53.212;6.574;2023-05-20T12:10:10;2.60;;;0.90;;
52294;SDS011;38243;53.212;6.574;2023-05-20T12:12:36;3.10;;;1.00;;
52294;SDS011;38243;53.212;6.574;2023-05-20T12:15:03;3.13;;;1.00;;
52294;SDS011;38243;53.212;6.574;2023-05-20T12:17:28;3.83;;;0.93;;
52294;SDS011;38243;53.212;6.574;2023-05-20T12:19:56;1.40;;;0.80;;
52294;SDS011;38243;53.212;6.574;2023-05-20T12:22:21;3.58;;;0.80;;
52294;SDS011;38243;53.212;6.574;2023-05-20T12:24:48;1.73;;;0.80;;
52294;SDS011;38243;53.212;6.574;2023-05-20T12:27:14;2.28;;;0.80;;
52294;SDS011;38243;53.212;6.574;2023-05-20T12:29:40;3.17;;;0.97;;
52294;SDS011;38243;53.212;6.574;2023-05-20T12:32:06;3.00;;;1.13;;
52294;SDS011;38243;53.212;6.574;2023-05-20T12:34:31;2.80;;;0.82;;
52294;SDS011;38243;53.212;6.574;2023-05-20T12:36:57;5.23;;;0.70;;
52294;SDS011;38243;53.212;6.574;2023-05-20T12:39:23;2.90;;;0.80;;
52294;SDS011;38243;53.212;6.574;2023-05-20T12:41:48;3.90;;;0.90;;
52294;SDS011;38243;53.212;6.574;2023-05-20T12:44:14;2.53;;;0.98;;
52294;SDS011;38243;53.212;6.574;2023-05-20T12:46:40;2.83;;;0.90;;
52294;SDS011;38243;53.212;6.574;2023-05-20T12:49:06;3.40;;;0.80;;
52294;SDS011;38243;53.212;6.574;2023-05-20T12:51:32;1.98;;;0.80;;
52294;SDS011;38243;53.212;6.574;2023-05-20T12:53:57;2.25;;;0.70;;
52294;SDS011;38243;53.212;6.574;2023-05-20T12:56:23;1.37;;;0.70;;
52294;SDS011;38243;53.212;6.574;2023-05-20T12:58:50;1.02;;;0.55;;
52294;SDS011;38243;53.212;6.574;2023-05-20T13:01:16;1.97;;;0.53;;
52294;SDS011;38243;53.212;6.574;2023-05-20T13:03:41;1.98;;;0.80;;
52294;SDS011;38243;53.212;6.574;2023-05-20T13:06:07;2.50;;;0.60;;
52294;SDS011;38243;53.212;6.574;2023-05-20T13:08:32;3.45;;;1.10;;
52294;SDS011;38243;53.212;6.574;2023-05-20T13:10:58;1.42;;;0.70;;
52294;SDS011;38243;53.212;6.574;2023-05-20T13:13:24;1.50;;;0.50;;
52294;SDS011;38243;53.212;6.574;2023-05-20T13:15:49;2.15;;;0.60;;
52294;SDS011;38243;53.212;6.574;2023-05-20T13:18:15;2.27;;;0.80;;
52294;SDS011;38243;53.212;6.574;2023-05-20T13:20:42;1.23;;;0.65;;
52294;SDS011;38243;53.212;6.574;2023-05-20T13:23:08;1.88;;;0.88;;
52294;SDS011;38243;53.212;6.574;2023-05-20T13:25:33;1.83;;;1.00;;
52294;SDS011;38243;53.212;6.574;2023-05-20T13:28:00;1.65;;;0.70;;
52294;SDS011;38243;53.212;6.574;2023-05-20T13:30:27;3.85;;;1.08;;
52294;SDS011;38243;53.212;6.574;2023-05-20T13:32:53;1.80;;;0.90;;
52294;SDS011;38243;53.212;6.574;2023-05-20T13:35:19;1.93;;;0.90;;
52294;SDS011;38243;53.212;6.574;2023-05-20T13:37:46;2.30;;;0.95;;
52294;SDS011;38243;53.212;6.574;2023-05-20T13:40:12;3.00;;;0.80;;
52294;SDS011;38243;53.212;6.574;2023-05-20T13:42:38;2.20;;;0.90;;
52294;SDS011;38243;53.212;6.574;2023-05-20T13:45:04;3.33;;;0.90;;
52294;SDS011;38243;53.212;6.574;2023-05-20T13:47:30;1.73;;;0.70;;
52294;SDS011;38243;53.212;6.574;2023-05-20T13:49:56;2.38;;;0.88;;
52294;SDS011;38243;53.212;6.574;2023-05-20T13:52:21;1.63;;;0.77;;
52294;SDS011;38243;53.212;6.574;2023-05-20T13:54:47;2.65;;;0.90;;
52294;SDS011;38243;53.212;6.574;2023-05-20T13:57:13;2.67;;;1.10;;
52294;SDS011;38243;53.212;6.574;2023-05-20T13:59:40;1.77;;;0.75;;
52294;SDS011;38243;53.212;6.574;2023-05-20T14:02:05;2.43;;;0.93;;
52294;SDS011;38243;53.212;6.574;2023-05-20T14:04:32;1.70;;;0.82;;
52294;SDS011;38243;53.212;6.574;2023-05-20T14:07:04;1.63;;;0.80;;
52294;SDS011;38243;53.212;6.574;2023-05-20T14:09:29;1.83;;;0.80;;
52294;SDS011;38243;53.212;6.574;2023-05-20T14:11:55;2.53;;;0.82;;
52294;SDS011;38243;53.212;6.574;2023-05-20T14:14:21;1.37;;;0.70;;
52294;SDS011;38243;53.212;6.574;2023-05-20T14:16:46;1.98;;;0.70;;
52294;SDS011;38243;53.212;6.574;2023-05-20T14:19:12;2.83;;;0.90;;
52294;SDS011;38243;53.212;6.574;2023-05-20T14:21:38;1.88;;;0.88;;
52294;SDS011;38243;53.212;6.574;2023-05-20T14:24:03;1.95;;;0.90;;
52294;SDS011;38243;53.212;6.574;2023-05-20T14:26:29;2.00;;;0.80;;
52294;SDS011;38243;53.212;6.574;2023-05-20T14:28:56;1.90;;;0.80;;
52294;SDS011;38243;53.212;6.574;2023-05-20T14:31:22;1.70;;;0.73;;
52294;SDS011;38243;53.212;6.574;2023-05-20T14:33:48;1.70;;;0.95;;
52294;SDS011;38243;53.212;6.574;2023-05-20T14:36:14;5.10;;;1.50;;
52294;SDS011;38243;53.212;6.574;2023-05-20T14:38:39;6.78;;;1.20;;
52294;SDS011;38243;53.212;6.574;2023-05-20T14:41:05;14.52;;;2.03;;
52294;SDS011;38243;53.212;6.574;2023-05-20T14:43:31;11.33;;;2.17;;
52294;SDS011;38243;53.212;6.574;2023-05-20T14:45:56;19.95;;;2.78;;
52294;SDS011;38243;53.212;6.574;2023-05-20T14:48:22;21.77;;;2.95;;
52294;SDS011;38243;53.212;6.574;2023-05-20T14:50:48;32.20;;;4.82;;
52294;SDS011;38243;53.212;6.574;2023-05-20T14:53:14;25.87;;;5.17;;
52294;SDS011;38243;53.212;6.574;2023-05-20T14:55:40;40.10;;;6.97;;